sensor_id;sensor_type;location;lat;lon;timestamp;pressure;altitude;pressure_sealevel;temperature;humidity
5053;BME280;2545;50.892;5.740;2023-08-30T00:01:00;56184.66;;;-142.21;100.00
5053;BME280;2545;50.892;5.740;2023-08-30T00:03:25;56178.75;;;-142.21;100.00
5053;BME280;2545;50.892;5.740;2023-08-30T00:05:51;56168.97;;;-142.21;100.00
5053;BME280;2545;50.892;5.740;2023-08-30T00:08:16;56170.91;;;-142.21;100.00
5053;BME280;2545;50.892;5.740;2023-08-30T00:10:48;56170.91;;;-142.21;100.00
5053;BME280;2545;50.892;5.740;2023-08-30T00:13:13;56188.56;;;-142.21;100.00
5053;BME280;2545;50.892;5.740;2023-08-30T00:15:39;56176.78;;;-142.21;100.00
5053;BME280;2545;50.892;5.740;2023-08-30T00:18:04;56212.09;;;-142.21;100.00
5053;BME280;2545;50.892;5.740;2023-08-30T00:20:30;56210.13;;;-142.21;100.00
5053;BME280;2545;50.892;5.740;2023-08-30T00:22:55;56182.69;;;-142.21;100.00
5053;BME280;2545;50.892;5.740;2023-08-30T00:25:20;56163.06;;;-142.21;100.00
5053;BME280;2545;50.892;5.740;2023-08-30T00:27:46;56182.69;;;-142.21;100.00
5053;BME280;2545;50.892;5.740;2023-08-30T00:30:11;56196.41;;;-142.21;100.00
5053;BME280;2545;50.892;5.740;2023-08-30T00:32:37;56190.53;;;-142.21;100.00
5053;BME280;2545;50.892;5.740;2023-08-30T00:35:02;56178.75;;;-142.21;100.00
5053;BME280;2545;50.892;5.740;2023-08-30T00:37:28;56149.34;;;-142.21;100.00
5053;BME280;2545;50.892;5.740;2023-08-30T00:39:53;56212.09;;;-142.21;100.00
5053;BME280;2545;50.892;5.740;2023-08-30T00:42:18;56216.00;;;-142.21;100.00
5053;BME280;2545;50.892;5.740;2023-08-30T00:44:44;56182.69;;;-142.21;100.00
5053;BME280;2545;50.892;5.740;2023-08-30T00:47:09;56153.28;;;-142.21;100.00
5053;BME280;2545;50.892;5.740;2023-08-30T00:49:35;56159.16;;;-142.21;100.00
5053;BME280;2545;50.892;5.740;2023-08-30T00:52:02;56190.53;;;-142.21;100.00
5053;BME280;2545;50.892;5.740;2023-08-30T00:54:29;56192.50;;;-142.21;100.00
5053;BME280;2545;50.892;5.740;2023-08-30T00:56:55;56194.44;;;-142.21;100.00
5053;BME280;2545;50.892;5.740;2023-08-30T00:59:21;56192.50;;;-142.21;100.00
5053;BME280;2545;50.892;5.740;2023-08-30T01:01:47;56170.91;;;-142.21;100.00
5053;BME280;2545;50.892;5.740;2023-08-30T01:04:13;56200.34;;;-142.21;100.00
5053;BME280;2545;50.892;5.740;2023-08-30T01:06:39;56170.91;;;-142.21;100.00
5053;BME280;2545;50.892;5.740;2023-08-30T01:09:04;56194.44;;;-142.21;100.00
5053;BME280;2545;50.892;5.740;2023-08-30T01:11:43;56145.44;;;-142.21;100.00
5053;BME280;2545;50.892;5.740;2023-08-30T01:14:22;56210.13;;;-142.21;100.00
5053;BME280;2545;50.892;5.740;2023-08-30T01:16:50;56233.66;;;-142.21;100.00
5053;BME280;2545;50.892;5.740;2023-08-30T01:19:42;56159.16;;;-142.21;100.00
5053;BME280;2545;50.892;5.740;2023-08-30T01:27:39;56188.56;;;-142.21;100.00
5053;BME280;2545;50.892;5.740;2023-08-30T01:30:07;56172.88;;;-142.21;100.00
5053;BME280;2545;50.892;5.740;2023-08-30T01:32:34;56198.38;;;-142.21;100.00
5053;BME280;2545;50.892;5.740;2023-08-30T01:35:02;56214.06;;;-142.21;100.00
5053;BME280;2545;50.892;5.740;2023-08-30T01:37:29;56202.28;;;-142.21;100.00
5053;BME280;2545;50.892;5.740;2023-08-30T01:39:56;56204.25;;;-142.21;100.00
5053;BME280;2545;50.892;5.740;2023-08-30T01:42:23;56163.06;;;-142.21;100.00
5053;BME280;2545;50.892;5.740;2023-08-30T01:44:50;56168.97;;;-142.21;100.00
5053;BME280;2545;50.892;5.740;2023-08-30T01:47:17;56198.38;;;-142.21;100.00
5053;BME280;2545;50.892;5.740;2023-08-30T01:49:44;56159.16;;;-142.21;100.00
5053;BME280;2545;50.892;5.740;2023-08-30T01:52:10;56184.66;;;-142.21;100.00
5053;BME280;2545;50.892;5.740;2023-08-30T01:54:37;56188.56;;;-142.21;100.00
5053;BME280;2545;50.892;5.740;2023-08-30T01:57:03;56225.81;;;-142.21;100.00
5053;BME280;2545;50.892;5.740;2023-08-30T01:59:29;56159.16;;;-142.21;100.00
5053;BME280;2545;50.892;5.740;2023-08-30T02:01:55;56170.91;;;-142.21;100.00
5053;BME280;2545;50.892;5.740;2023-08-30T02:04:20;56170.91;;;-142.21;100.00
5053;BME280;2545;50.892;5.740;2023-08-30T02:06:54;56168.97;;;-142.21;100.00
5053;BME280;2545;50.892;5.740;2023-08-30T02:12:30;56172.88;;;-142.21;100.00
5053;BME280;2545;50.892;5.740;2023-08-30T02:14:57;56159.16;;;-142.21;100.00
5053;BME280;2545;50.892;5.740;2023-08-30T02:17:23;56151.31;;;-142.21;100.00
5053;BME280;2545;50.892;5.740;2023-08-30T02:19:49;56190.53;;;-142.21;100.00
5053;BME280;2545;50.892;5.740;2023-08-30T02:22:18;56172.88;;;-142.21;100.00
5053;BME280;2545;50.892;5.740;2023-08-30T02:24:43;56159.16;;;-142.21;100.00
5053;BME280;2545;50.892;5.740;2023-08-30T02:27:09;56178.75;;;-142.21;100.00
5053;BME280;2545;50.892;5.740;2023-08-30T02:29:34;56161.13;;;-142.21;100.00
5053;BME280;2545;50.892;5.740;2023-08-30T02:32:00;56170.91;;;-142.21;100.00
5053;BME280;2545;50.892;5.740;2023-08-30T02:34:25;56182.69;;;-142.21;100.00
5053;BME280;2545;50.892;5.740;2023-08-30T02:36:50;56170.91;;;-142.21;100.00
5053;BME280;2545;50.892;5.740;2023-08-30T02:39:16;56184.66;;;-142.21;100.00
5053;BME280;2545;50.892;5.740;2023-08-30T02:41:41;56180.72;;;-142.21;100.00
5053;BME280;2545;50.892;5.740;2023-08-30T02:44:11;56208.16;;;-142.21;100.00
5053;BME280;2545;50.892;5.740;2023-08-30T02:46:37;56163.06;;;-142.21;100.00
5053;BME280;2545;50.892;5.740;2023-08-30T02:49:03;56190.53;;;-142.21;100.00
5053;BME280;2545;50.892;5.740;2023-08-30T02:51:28;56165.03;;;-142.21;100.00
5053;BME280;2545;50.892;5.740;2023-08-30T02:53:53;56198.38;;;-142.21;100.00
5053;BME280;2545;50.892;5.740;2023-08-30T02:56:19;56149.34;;;-142.21;100.00
5053;BME280;2545;50.892;5.740;2023-08-30T02:58:44;56168.97;;;-142.21;100.00
5053;BME280;2545;50.892;5.740;2023-08-30T03:01:10;56206.22;;;-142.21;100.00
5053;BME280;2545;50.892;5.740;2023-08-30T03:03:35;56168.97;;;-142.21;100.00
5053;BME280;2545;50.892;5.740;2023-08-30T03:06:01;56165.03;;;-142.21;100.00
5053;BME280;2545;50.892;5.740;2023-08-30T03:08:28;56190.53;;;-142.21;100.00
5053;BME280;2545;50.892;5.740;2023-08-30T03:10:53;56147.38;;;-142.21;100.00
5053;BME280;2545;50.892;5.740;2023-08-30T03:13:18;56139.53;;;-142.21;100.00
5053;BME280;2545;50.892;5.740;2023-08-30T03:15:44;56151.31;;;-142.21;100.00
5053;BME280;2545;50.892;5.740;2023-08-30T03:18:09;56161.13;;;-142.21;100.00
5053;BME280;2545;50.892;5.740;2023-08-30T03:20:35;56190.53;;;-142.21;100.00
5053;BME280;2545;50.892;5.740;2023-08-30T03:23:00;56196.41;;;-142.21;100.00
5053;BME280;2545;50.892;5.740;2023-08-30T03:25:28;56163.06;;;-142.21;100.00
5053;BME280;2545;50.892;5.740;2023-08-30T03:27:54;56168.97;;;-142.21;100.00
5053;BME280;2545;50.892;5.740;2023-08-30T03:30:19;56200.34;;;-142.21;100.00
5053;BME280;2545;50.892;5.740;2023-08-30T03:32:45;56186.59;;;-142.21;100.00
5053;BME280;2545;50.892;5.740;2023-08-30T03:35:10;56184.66;;;-142.21;100.00
5053;BME280;2545;50.892;5.740;2023-08-30T03:37:36;56190.53;;;-142.21;100.00
5053;BME280;2545;50.892;5.740;2023-08-30T03:40:02;56190.53;;;-142.21;100.00
5053;BME280;2545;50.892;5.740;2023-08-30T03:42:27;56167.00;;;-142.21;100.00
5053;BME280;2545;50.892;5.740;2023-08-30T03:44:52;56180.72;;;-142.21;100.00
5053;BME280;2545;50.892;5.740;2023-08-30T03:47:18;56153.28;;;-142.21;100.00
5053;BME280;2545;50.892;5.740;2023-08-30T03:49:43;56167.00;;;-142.21;100.00
5053;BME280;2545;50.892;5.740;2023-08-30T03:52:09;56157.19;;;-142.21;100.00
5053;BME280;2545;50.892;5.740;2023-08-30T03:54:34;56161.13;;;-142.21;100.00
5053;BME280;2545;50.892;5.740;2023-08-30T03:56:59;56157.19;;;-142.21;100.00
5053;BME280;2545;50.892;5.740;2023-08-30T03:59:25;56231.72;;;-142.21;100.00
5053;BME280;2545;50.892;5.740;2023-08-30T04:01:52;56170.91;;;-142.21;100.00
5053;BME280;2545;50.892;5.740;2023-08-30T04:04:18;56167.00;;;-142.21;100.00
5053;BME280;2545;50.892;5.740;2023-08-30T04:06:43;56159.16;;;-142.21;100.00
5053;BME280;2545;50.892;5.740;2023-08-30T04:09:08;56168.97;;;-142.21;100.00
5053;BME280;2545;50.892;5.740;2023-08-30T04:11:35;56161.13;;;-142.21;100.00
5053;BME280;2545;50.892;5.740;2023-08-30T04:14:00;56231.72;;;-142.21;100.00
5053;BME280;2545;50.892;5.740;2023-08-30T04:16:26;56186.59;;;-142.21;100.00
5053;BME280;2545;50.892;5.740;2023-08-30T04:18:51;56194.44;;;-142.21;100.00
5053;BME280;2545;50.892;5.740;2023-08-30T04:21:16;56165.03;;;-142.21;100.00
5053;BME280;2545;50.892;5.740;2023-08-30T04:23:42;56182.69;;;-142.21;100.00
5053;BME280;2545;50.892;5.740;2023-08-30T04:26:07;56161.13;;;-142.21;100.00
5053;BME280;2545;50.892;5.740;2023-08-30T04:28:32;56192.50;;;-142.21;100.00
5053;BME280;2545;50.892;5.740;2023-08-30T04:30:58;56159.16;;;-142.21;100.00
5053;BME280;2545;50.892;5.740;2023-08-30T04:33:24;56184.66;;;-142.21;100.00
5053;BME280;2545;50.892;5.740;2023-08-30T04:35:53;56202.28;;;-142.21;100.00
5053;BME280;2545;50.892;5.740;2023-08-30T04:38:20;56194.44;;;-142.21;100.00
5053;BME280;2545;50.892;5.740;2023-08-30T04:40:45;56178.75;;;-142.21;100.00
5053;BME280;2545;50.892;5.740;2023-08-30T04:43:11;56141.50;;;-142.21;100.00
5053;BME280;2545;50.892;5.740;2023-08-30T04:45:36;56151.31;;;-142.21;100.00
5053;BME280;2545;50.892;5.740;2023-08-30T04:48:02;56165.03;;;-142.21;100.00
5053;BME280;2545;50.892;5.740;2023-08-30T04:50:27;56186.59;;;-142.21;100.00
5053;BME280;2545;50.892;5.740;2023-08-30T04:52:53;56178.75;;;-142.21;100.00
5053;BME280;2545;50.892;5.740;2023-08-30T04:55:18;56167.00;;;-142.21;100.00
5053;BME280;2545;50.892;5.740;2023-08-30T04:57:44;56153.28;;;-142.21;100.00
5053;BME280;2545;50.892;5.740;2023-08-30T05:00:11;56167.00;;;-142.21;100.00
5053;BME280;2545;50.892;5.740;2023-08-30T05:02:37;56165.03;;;-142.21;100.00
5053;BME280;2545;50.892;5.740;2023-08-30T05:05:03;56157.19;;;-142.21;100.00
5053;BME280;2545;50.892;5.740;2023-08-30T05:07:28;56182.69;;;-142.21;100.00
5053;BME280;2545;50.892;5.740;2023-08-30T05:09:54;56143.47;;;-142.21;100.00
5053;BME280;2545;50.892;5.740;2023-08-30T05:12:19;56165.03;;;-142.21;100.00
5053;BME280;2545;50.892;5.740;2023-08-30T05:14:44;56116.00;;;-142.21;100.00
5053;BME280;2545;50.892;5.740;2023-08-30T05:17:10;56155.22;;;-142.21;100.00
5053;BME280;2545;50.892;5.740;2023-08-30T05:19:35;56204.25;;;-142.21;100.00
5053;BME280;2545;50.892;5.740;2023-08-30T05:22:00;56178.75;;;-142.21;100.00
5053;BME280;2545;50.892;5.740;2023-08-30T05:24:26;56174.84;;;-142.21;100.00
5053;BME280;2545;50.892;5.740;2023-08-30T05:26:53;56174.84;;;-142.21;100.00
5053;BME280;2545;50.892;5.740;2023-08-30T05:29:19;56137.59;;;-142.21;100.00
5053;BME280;2545;50.892;5.740;2023-08-30T05:31:44;56194.44;;;-142.21;100.00
5053;BME280;2545;50.892;5.740;2023-08-30T05:34:10;56129.75;;;-142.21;99.17
5053;BME280;2545;50.892;5.740;2023-08-30T05:36:36;56143.47;;;-142.21;98.58
5053;BME280;2545;50.892;5.740;2023-08-30T05:39:03;56155.22;;;-142.21;97.75
5053;BME280;2545;50.892;5.740;2023-08-30T05:41:29;56174.84;;;-142.21;95.94
5053;BME280;2545;50.892;5.740;2023-08-30T05:43:55;56163.06;;;-142.21;94.85
5053;BME280;2545;50.892;5.740;2023-08-30T05:46:20;56127.78;;;-142.21;93.96
5053;BME280;2545;50.892;5.740;2023-08-30T05:48:46;56180.72;;;-142.21;92.92
5053;BME280;2545;50.892;5.740;2023-08-30T05:51:12;56176.78;;;-142.21;92.91
5053;BME280;2545;50.892;5.740;2023-08-30T05:53:37;56145.44;;;-142.21;93.21
5053;BME280;2545;50.892;5.740;2023-08-30T05:56:03;56163.06;;;-142.21;92.85
5053;BME280;2545;50.892;5.740;2023-08-30T05:58:29;56174.84;;;-142.21;92.61
5053;BME280;2545;50.892;5.740;2023-08-30T06:00:55;56145.44;;;-142.21;91.83
5053;BME280;2545;50.892;5.740;2023-08-30T06:03:21;56163.06;;;-142.21;90.99
5053;BME280;2545;50.892;5.740;2023-08-30T06:05:46;56165.03;;;-142.21;89.88
5053;BME280;2545;50.892;5.740;2023-08-30T06:08:13;56161.13;;;-142.21;88.64
5053;BME280;2545;50.892;5.740;2023-08-30T06:10:39;56153.28;;;-142.21;87.83
5053;BME280;2545;50.892;5.740;2023-08-30T06:13:04;56139.53;;;-142.21;87.41
5053;BME280;2545;50.892;5.740;2023-08-30T06:15:30;56161.13;;;-142.21;86.40
5053;BME280;2545;50.892;5.740;2023-08-30T06:17:56;56174.84;;;-142.21;86.25
5053;BME280;2545;50.892;5.740;2023-08-30T06:20:21;56168.97;;;-142.21;85.20
5053;BME280;2545;50.892;5.740;2023-08-30T06:22:46;56143.47;;;-142.21;85.05
5053;BME280;2545;50.892;5.740;2023-08-30T06:25:12;56149.34;;;-142.21;84.52
5053;BME280;2545;50.892;5.740;2023-08-30T06:27:41;56139.53;;;-142.21;83.93
5053;BME280;2545;50.892;5.740;2023-08-30T06:30:09;56147.38;;;-142.21;82.90
5053;BME280;2545;50.892;5.740;2023-08-30T06:32:34;56155.22;;;-142.21;82.65
5053;BME280;2545;50.892;5.740;2023-08-30T06:35:00;56174.84;;;-142.21;82.22
5053;BME280;2545;50.892;5.740;2023-08-30T06:37:26;56180.72;;;-142.21;81.87
5053;BME280;2545;50.892;5.740;2023-08-30T06:39:51;56168.97;;;-142.21;81.17
5053;BME280;2545;50.892;5.740;2023-08-30T06:42:16;56151.31;;;-142.21;80.19
5053;BME280;2545;50.892;5.740;2023-08-30T06:44:42;56147.38;;;-142.21;80.38
5053;BME280;2545;50.892;5.740;2023-08-30T06:47:07;56155.22;;;-142.21;80.42
5053;BME280;2545;50.892;5.740;2023-08-30T06:49:33;56155.22;;;-142.21;79.55
5053;BME280;2545;50.892;5.740;2023-08-30T06:51:59;56116.00;;;-142.21;80.39
5053;BME280;2545;50.892;5.740;2023-08-30T06:54:26;56170.91;;;-142.21;78.64
5053;BME280;2545;50.892;5.740;2023-08-30T06:56:59;56129.75;;;-142.21;77.83
5053;BME280;2545;50.892;5.740;2023-08-30T06:59:25;56145.44;;;-142.21;77.13
5053;BME280;2545;50.892;5.740;2023-08-30T07:01:50;56170.91;;;-142.21;78.41
5053;BME280;2545;50.892;5.740;2023-08-30T07:04:15;56131.69;;;-142.21;77.95
5053;BME280;2545;50.892;5.740;2023-08-30T07:06:41;56119.94;;;-142.21;78.57
5053;BME280;2545;50.892;5.740;2023-08-30T07:09:06;56163.06;;;-142.21;79.72
5053;BME280;2545;50.892;5.740;2023-08-30T07:11:31;56125.81;;;-142.21;79.82
5053;BME280;2545;50.892;5.740;2023-08-30T07:13:57;56110.13;;;-142.21;78.20
5053;BME280;2545;50.892;5.740;2023-08-30T07:16:22;56104.25;;;-142.21;77.44
5053;BME280;2545;50.892;5.740;2023-08-30T07:18:47;56178.75;;;-142.21;77.43
5053;BME280;2545;50.892;5.740;2023-08-30T07:21:13;56149.34;;;-142.21;77.26
5053;BME280;2545;50.892;5.740;2023-08-30T07:23:38;56139.53;;;-142.21;75.96
5053;BME280;2545;50.892;5.740;2023-08-30T07:26:04;56098.38;;;-142.21;76.28
5053;BME280;2545;50.892;5.740;2023-08-30T07:28:29;56155.22;;;-142.21;75.85
5053;BME280;2545;50.892;5.740;2023-08-30T07:31:04;56135.63;;;-142.21;75.50
5053;BME280;2545;50.892;5.740;2023-08-30T07:33:30;56110.13;;;-142.21;74.28
5053;BME280;2545;50.892;5.740;2023-08-30T07:35:56;56135.63;;;-142.21;73.81
5053;BME280;2545;50.892;5.740;2023-08-30T07:38:21;56123.84;;;-142.21;72.88
5053;BME280;2545;50.892;5.740;2023-08-30T07:40:47;56159.16;;;-142.21;72.02
5053;BME280;2545;50.892;5.740;2023-08-30T07:43:12;56100.31;;;-142.21;71.74
5053;BME280;2545;50.892;5.740;2023-08-30T07:45:37;56098.38;;;-142.21;72.37
5053;BME280;2545;50.892;5.740;2023-08-30T07:48:03;56125.81;;;-142.21;72.08
5053;BME280;2545;50.892;5.740;2023-08-30T07:50:28;56106.22;;;-142.21;72.16
5053;BME280;2545;50.892;5.740;2023-08-30T07:52:54;56141.50;;;-142.21;72.95
5053;BME280;2545;50.892;5.740;2023-08-30T07:55:19;56131.69;;;-142.21;71.71
5053;BME280;2545;50.892;5.740;2023-08-30T07:57:45;56141.50;;;-142.21;71.93
5053;BME280;2545;50.892;5.740;2023-08-30T08:00:11;56110.13;;;-142.21;73.37
5053;BME280;2545;50.892;5.740;2023-08-30T08:02:37;56100.31;;;-142.21;73.01
5053;BME280;2545;50.892;5.740;2023-08-30T08:05:02;56094.44;;;-142.21;73.52
5053;BME280;2545;50.892;5.740;2023-08-30T08:07:28;56088.56;;;-142.21;73.58
5053;BME280;2545;50.892;5.740;2023-08-30T08:09:53;56137.59;;;-142.21;73.50
5053;BME280;2545;50.892;5.740;2023-08-30T08:12:19;56127.78;;;-142.21;73.40
5053;BME280;2545;50.892;5.740;2023-08-30T08:14:44;56082.69;;;-142.21;72.94
5053;BME280;2545;50.892;5.740;2023-08-30T08:17:10;56163.06;;;-142.21;72.03
5053;BME280;2545;50.892;5.740;2023-08-30T08:19:35;56155.22;;;-142.21;73.38
5053;BME280;2545;50.892;5.740;2023-08-30T08:22:04;56143.47;;;-142.21;73.50
5053;BME280;2545;50.892;5.740;2023-08-30T08:24:30;56127.78;;;-142.21;71.89
5053;BME280;2545;50.892;5.740;2023-08-30T08:26:55;56125.81;;;-142.21;71.39
5053;BME280;2545;50.892;5.740;2023-08-30T08:29:20;56102.28;;;-142.21;72.35
5053;BME280;2545;50.892;5.740;2023-08-30T08:31:46;56121.91;;;-142.21;70.48
5053;BME280;2545;50.892;5.740;2023-08-30T08:34:12;56117.97;;;-142.21;69.12
5053;BME280;2545;50.892;5.740;2023-08-30T08:36:39;56129.75;;;-142.21;66.92
5053;BME280;2545;50.892;5.740;2023-08-30T08:39:05;56151.31;;;-142.21;66.34
5053;BME280;2545;50.892;5.740;2023-08-30T08:41:49;56086.59;;;-142.21;66.15
5053;BME280;2545;50.892;5.740;2023-08-30T08:44:18;56065.03;;;-142.21;64.79
5053;BME280;2545;50.892;5.740;2023-08-30T08:46:44;56084.63;;;-142.21;67.08
5053;BME280;2545;50.892;5.740;2023-08-30T08:51:35;56131.69;;;-142.21;66.92
5053;BME280;2545;50.892;5.740;2023-08-30T08:54:03;56114.06;;;-142.21;67.13
5053;BME280;2545;50.892;5.740;2023-08-30T08:56:32;56104.25;;;-142.21;67.46
5053;BME280;2545;50.892;5.740;2023-08-30T08:59:01;56114.06;;;-142.21;67.81
5053;BME280;2545;50.892;5.740;2023-08-30T09:01:27;56123.84;;;-142.21;69.93
5053;BME280;2545;50.892;5.740;2023-08-30T09:03:53;56137.59;;;-142.21;76.62
5053;BME280;2545;50.892;5.740;2023-08-30T09:06:18;56151.31;;;-142.21;84.82
5053;BME280;2545;50.892;5.740;2023-08-30T09:08:44;56108.16;;;-142.21;90.82
5053;BME280;2545;50.892;5.740;2023-08-30T09:11:09;56157.19;;;-142.21;97.18
5053;BME280;2545;50.892;5.740;2023-08-30T09:13:35;56147.38;;;-142.21;100.00
5053;BME280;2545;50.892;5.740;2023-08-30T09:16:00;56163.06;;;-142.21;100.00
5053;BME280;2545;50.892;5.740;2023-08-30T09:18:26;56167.00;;;-142.21;100.00
5053;BME280;2545;50.892;5.740;2023-08-30T09:21:25;56190.53;;;-142.21;100.00
5053;BME280;2545;50.892;5.740;2023-08-30T09:24:04;56184.66;;;-142.21;100.00
5053;BME280;2545;50.892;5.740;2023-08-30T09:26:31;56174.84;;;-142.21;100.00
5053;BME280;2545;50.892;5.740;2023-08-30T09:29:06;56188.56;;;-142.21;100.00
5053;BME280;2545;50.892;5.740;2023-08-30T09:31:35;56184.66;;;-142.21;100.00
5053;BME280;2545;50.892;5.740;2023-08-30T09:34:02;56174.84;;;-142.21;100.00
5053;BME280;2545;50.892;5.740;2023-08-30T09:36:38;56198.38;;;-142.21;100.00
5053;BME280;2545;50.892;5.740;2023-08-30T09:39:11;56219.94;;;-142.21;100.00
5053;BME280;2545;50.892;5.740;2023-08-30T09:41:57;56180.72;;;-142.21;100.00
5053;BME280;2545;50.892;5.740;2023-08-30T09:44:22;56192.50;;;-142.21;100.00
5053;BME280;2545;50.892;5.740;2023-08-30T09:46:51;56192.50;;;-142.21;100.00
5053;BME280;2545;50.892;5.740;2023-08-30T09:49:21;56176.78;;;-142.21;100.00
5053;BME280;2545;50.892;5.740;2023-08-30T09:51:48;56190.53;;;-142.21;100.00
5053;BME280;2545;50.892;5.740;2023-08-30T09:54:26;56176.78;;;-142.21;100.00
5053;BME280;2545;50.892;5.740;2023-08-30T09:56:54;56206.22;;;-142.21;100.00
5053;BME280;2545;50.892;5.740;2023-08-30T09:59:21;56176.78;;;-142.21;100.00
5053;BME280;2545;50.892;5.740;2023-08-30T10:01:47;56186.59;;;-142.21;100.00
5053;BME280;2545;50.892;5.740;2023-08-30T10:04:19;56151.31;;;-142.21;100.00
5053;BME280;2545;50.892;5.740;2023-08-30T10:06:45;56202.28;;;-142.21;100.00
5053;BME280;2545;50.892;5.740;2023-08-30T10:09:11;56184.66;;;-142.21;100.00
5053;BME280;2545;50.892;5.740;2023-08-30T10:11:38;56188.56;;;-142.21;100.00
5053;BME280;2545;50.892;5.740;2023-08-30T10:14:07;56184.66;;;-142.21;100.00
5053;BME280;2545;50.892;5.740;2023-08-30T10:16:51;56163.06;;;-142.21;100.00
5053;BME280;2545;50.892;5.740;2023-08-30T10:19:26;56190.53;;;-142.21;100.00
5053;BME280;2545;50.892;5.740;2023-08-30T10:22:02;56163.06;;;-142.21;100.00
5053;BME280;2545;50.892;5.740;2023-08-30T10:24:31;56217.97;;;-142.21;100.00
5053;BME280;2545;50.892;5.740;2023-08-30T10:26:59;56163.06;;;-142.21;100.00
5053;BME280;2545;50.892;5.740;2023-08-30T10:29:26;56163.06;;;-142.21;100.00
5053;BME280;2545;50.892;5.740;2023-08-30T10:31:52;56194.44;;;-142.21;100.00
5053;BME280;2545;50.892;5.740;2023-08-30T10:34:18;56198.38;;;-142.21;100.00
5053;BME280;2545;50.892;5.740;2023-08-30T10:36:44;56198.38;;;-142.21;100.00
5053;BME280;2545;50.892;5.740;2023-08-30T10:39:14;56192.50;;;-142.21;100.00
5053;BME280;2545;50.892;5.740;2023-08-30T10:41:56;56200.34;;;-142.21;100.00
5053;BME280;2545;50.892;5.740;2023-08-30T10:44:23;56194.44;;;-142.21;100.00
5053;BME280;2545;50.892;5.740;2023-08-30T10:46:55;56159.16;;;-142.21;100.00
5053;BME280;2545;50.892;5.740;2023-08-30T10:49:21;56174.84;;;-142.21;100.00
5053;BME280;2545;50.892;5.740;2023-08-30T10:51:57;56174.84;;;-142.21;100.00
5053;BME280;2545;50.892;5.740;2023-08-30T10:54:23;56210.13;;;-142.21;100.00
5053;BME280;2545;50.892;5.740;2023-08-30T10:56:57;56192.50;;;-142.21;100.00
5053;BME280;2545;50.892;5.740;2023-08-30T10:59:24;56180.72;;;-142.21;100.00
5053;BME280;2545;50.892;5.740;2023-08-30T11:01:51;56184.66;;;-142.21;100.00
5053;BME280;2545;50.892;5.740;2023-08-30T11:04:18;56192.50;;;-142.21;100.00
5053;BME280;2545;50.892;5.740;2023-08-30T11:06:44;56204.25;;;-142.21;100.00
5053;BME280;2545;50.892;5.740;2023-08-30T11:09:17;56204.25;;;-142.21;100.00
5053;BME280;2545;50.892;5.740;2023-08-30T11:11:43;56180.72;;;-142.21;100.00
5053;BME280;2545;50.892;5.740;2023-08-30T11:14:10;56198.38;;;-142.21;100.00
5053;BME280;2545;50.892;5.740;2023-08-30T11:16:36;56202.28;;;-142.21;100.00
5053;BME280;2545;50.892;5.740;2023-08-30T11:19:03;56198.38;;;-142.21;100.00
5053;BME280;2545;50.892;5.740;2023-08-30T11:21:30;56212.09;;;-142.21;100.00
5053;BME280;2545;50.892;5.740;2023-08-30T11:23:56;56210.13;;;-142.21;100.00
5053;BME280;2545;50.892;5.740;2023-08-30T11:26:21;56188.56;;;-142.21;100.00
5053;BME280;2545;50.892;5.740;2023-08-30T11:28:47;56198.38;;;-142.21;100.00
5053;BME280;2545;50.892;5.740;2023-08-30T11:31:24;56223.84;;;-142.21;100.00
5053;BME280;2545;50.892;5.740;2023-08-30T11:33:53;56249.34;;;-142.21;100.00
5053;BME280;2545;50.892;5.740;2023-08-30T11:36:21;56210.13;;;-142.21;100.00
5053;BME280;2545;50.892;5.740;2023-08-30T11:38:49;56221.91;;;-142.21;100.00
5053;BME280;2545;50.892;5.740;2023-08-30T11:41:14;56178.75;;;-142.21;100.00
5053;BME280;2545;50.892;5.740;2023-08-30T11:43:40;56206.22;;;-142.21;100.00
5053;BME280;2545;50.892;5.740;2023-08-30T11:46:05;56196.41;;;-142.21;100.00
5053;BME280;2545;50.892;5.740;2023-08-30T11:48:31;56198.38;;;-142.21;100.00
5053;BME280;2545;50.892;5.740;2023-08-30T11:50:58;56188.56;;;-142.21;100.00
5053;BME280;2545;50.892;5.740;2023-08-30T11:53:24;56210.13;;;-142.21;100.00
5053;BME280;2545;50.892;5.740;2023-08-30T11:55:50;56227.78;;;-142.21;100.00
5053;BME280;2545;50.892;5.740;2023-08-30T11:58:18;56163.06;;;-142.21;100.00
5053;BME280;2545;50.892;5.740;2023-08-30T12:00:43;56196.41;;;-142.21;100.00
5053;BME280;2545;50.892;5.740;2023-08-30T12:03:09;56198.38;;;-142.21;100.00
5053;BME280;2545;50.892;5.740;2023-08-30T12:05:34;56214.06;;;-142.21;100.00
5053;BME280;2545;50.892;5.740;2023-08-30T12:08:01;56170.91;;;-142.21;100.00
5053;BME280;2545;50.892;5.740;2023-08-30T12:10:28;56235.63;;;-142.21;100.00
5053;BME280;2545;50.892;5.740;2023-08-30T12:12:55;56129.75;;;-142.21;100.00
5053;BME280;2545;50.892;5.740;2023-08-30T12:15:22;56198.38;;;-142.21;100.00
5053;BME280;2545;50.892;5.740;2023-08-30T12:17:49;56182.69;;;-142.21;100.00
5053;BME280;2545;50.892;5.740;2023-08-30T12:20:16;56163.06;;;-142.21;100.00
5053;BME280;2545;50.892;5.740;2023-08-30T12:22:42;56182.69;;;-142.21;100.00
5053;BME280;2545;50.892;5.740;2023-08-30T12:25:18;56188.56;;;-142.21;100.00
5053;BME280;2545;50.892;5.740;2023-08-30T12:27:45;56157.19;;;-142.21;100.00
5053;BME280;2545;50.892;5.740;2023-08-30T12:30:11;56212.09;;;-142.21;100.00
5053;BME280;2545;50.892;5.740;2023-08-30T12:32:37;56176.78;;;-142.21;100.00
5053;BME280;2545;50.892;5.740;2023-08-30T12:35:02;56182.69;;;-142.21;100.00
5053;BME280;2545;50.892;5.740;2023-08-30T12:37:28;56178.75;;;-142.21;100.00
5053;BME280;2545;50.892;5.740;2023-08-30T12:39:53;56178.75;;;-142.21;100.00
5053;BME280;2545;50.892;5.740;2023-08-30T12:42:18;56186.59;;;-142.21;100.00
5053;BME280;2545;50.892;5.740;2023-08-30T12:44:44;56188.56;;;-142.21;100.00
5053;BME280;2545;50.892;5.740;2023-08-30T12:47:10;56186.59;;;-142.21;100.00
5053;BME280;2545;50.892;5.740;2023-08-30T12:49:39;56168.97;;;-142.21;100.00
5053;BME280;2545;50.892;5.740;2023-08-30T12:52:04;56167.00;;;-142.21;100.00
5053;BME280;2545;50.892;5.740;2023-08-30T12:54:30;56145.44;;;-142.21;100.00
5053;BME280;2545;50.892;5.740;2023-08-30T12:56:55;56180.72;;;-142.21;100.00
5053;BME280;2545;50.892;5.740;2023-08-30T12:59:20;56212.09;;;-142.21;100.00
5053;BME280;2545;50.892;5.740;2023-08-30T13:01:46;56155.22;;;-142.21;100.00